Time;durP1;ratioP1;P1;durP2;ratioP2;P2;SDS_P1;SDS_P2;PMS_P1;PMS_P2;Temp;Humidity;BMP_temperature;BMP_pressure;BME280_temperature;BME280_humidity;BME280_pressure;Samples;Min_cycle;Max_cycle;Signal;HPM_P1;HPM_P2
2021/11/11 00:01:41;;;;;;;66.20;35.90;;;;;;;;;;5076725;28;20424;-77
2021/11/11 00:04:10;;;;;;;67.22;34.90;;;;;;;;;;5058633;28;20147;-77
2021/11/11 00:06:39;;;;;;;66.43;34.63;;;;;;;;;;5076690;28;20404;-73
2021/11/11 00:09:04;;;;;;;64.60;35.22;;;;;;;;;;5042612;28;20032;-73
2021/11/11 00:11:30;;;;;;;68.38;36.63;;;;;;;;;;5076339;28;20041;-73
2021/11/11 00:13:56;;;;;;;71.78;37.15;;;;;;;;;;5058813;28;20368;-73
2021/11/11 00:16:21;;;;;;;64.18;33.90;;;;;;;;;;5058864;28;20083;-73
2021/11/11 00:18:47;;;;;;;69.30;34.15;;;;;;;;;;5058624;28;20356;-73
2021/11/11 00:21:14;;;;;;;72.35;34.33;;;;;;;;;;5058508;28;20051;-76
2021/11/11 00:23:42;;;;;;;79.88;35.30;;;;;;;;;;5075791;28;20496;-76
2021/11/11 00:26:08;;;;;;;95.90;39.40;;;;;;;;;;5076388;28;20037;-75
2021/11/11 00:28:39;;;;;;;78.82;36.75;;;;;;;;;;5075961;28;20052;-77
2021/11/11 00:31:06;;;;;;;62.95;32.45;;;;;;;;;;5076070;28;20044;-76
2021/11/11 00:33:36;;;;;;;82.93;38.22;;;;;;;;;;5058184;28;20451;-77
2021/11/11 00:36:02;;;;;;;96.30;41.70;;;;;;;;;;5075828;28;20097;-77
2021/11/11 00:38:28;;;;;;;85.72;38.38;;;;;;;;;;5041475;28;20024;-77
2021/11/11 00:40:54;;;;;;;80.32;35.13;;;;;;;;;;5075962;28;20037;-77
2021/11/11 00:43:20;;;;;;;62.85;31.98;;;;;;;;;;5075725;28;20032;-78
2021/11/11 00:45:49;;;;;;;67.80;34.30;;;;;;;;;;5057710;28;20066;-77
2021/11/11 00:48:15;;;;;;;66.10;32.97;;;;;;;;;;5058211;28;20245;-78
2021/11/11 00:50:42;;;;;;;61.75;31.70;;;;;;;;;;5041217;28;20040;-75
2021/11/11 00:53:09;;;;;;;53.05;29.08;;;;;;;;;;5075778;28;20020;-75
2021/11/11 00:55:35;;;;;;;61.63;31.75;;;;;;;;;;5075752;28;20060;-75
2021/11/11 00:58:20;;;;;;;58.72;30.48;;;;;;;;;;5075061;28;20465;-76
2021/11/11 01:00:49;;;;;;;60.03;29.33;;;;;;;;;;5041053;28;20051;-76
2021/11/11 01:03:18;;;;;;;60.08;30.80;;;;;;;;;;5075546;28;20032;-74
2021/11/11 01:05:48;;;;;;;58.30;29.30;;;;;;;;;;5057794;28;20449;-76
2021/11/11 01:08:22;;;;;;;62.10;33.23;;;;;;;;;;5075401;28;20438;-76
2021/11/11 01:10:49;;;;;;;67.07;32.67;;;;;;;;;;5057906;28;20297;-76
2021/11/11 01:13:16;;;;;;;70.15;34.45;;;;;;;;;;5057079;28;20488;-76
2021/11/11 01:15:51;;;;;;;66.55;34.13;;;;;;;;;;5057071;28;20545;-78
2021/11/11 01:18:18;;;;;;;70.40;34.30;;;;;;;;;;5056676;28;20033;-76
2021/11/11 01:20:44;;;;;;;70.20;32.72;;;;;;;;;;5075017;28;20043;-78
2021/11/11 01:23:09;;;;;;;67.97;32.95;;;;;;;;;;5074758;28;20111;-78
2021/11/11 01:25:37;;;;;;;62.45;32.55;;;;;;;;;;5057078;28;20381;-78
2021/11/11 01:28:03;;;;;;;59.85;32.15;;;;;;;;;;5040386;28;20500;-77
2021/11/11 01:30:34;;;;;;;58.60;28.90;;;;;;;;;;5056993;28;20032;-77
2021/11/11 01:33:09;;;;;;;49.85;25.67;;;;;;;;;;5056921;28;20071;-75
2021/11/11 01:35:35;;;;;;;49.00;24.07;;;;;;;;;;5057333;28;20036;-76
2021/11/11 01:38:05;;;;;;;47.65;23.75;;;;;;;;;;5056867;28;20029;-77
2021/11/11 01:40:33;;;;;;;49.45;25.30;;;;;;;;;;5040320;28;20062;-77
2021/11/11 01:43:03;;;;;;;41.72;23.67;;;;;;;;;;5056889;28;20503;-74
2021/11/11 01:45:32;;;;;;;50.90;24.70;;;;;;;;;;5056933;28;20032;-74
2021/11/11 01:48:05;;;;;;;50.15;24.05;;;;;;;;;;5057021;28;20039;-77
2021/11/11 01:50:37;;;;;;;43.45;23.42;;;;;;;;;;5039914;28;20040;-77
2021/11/11 01:53:05;;;;;;;46.00;23.05;;;;;;;;;;5056633;28;20399;-77
2021/11/11 01:55:31;;;;;;;42.75;22.60;;;;;;;;;;5057108;28;20032;-76
2021/11/11 01:58:02;;;;;;;45.13;23.27;;;;;;;;;;5041046;28;20028;-78
2021/11/11 02:00:34;;;;;;;50.40;24.50;;;;;;;;;;5055958;28;20055;-77
2021/11/11 02:03:19;;;;;;;50.75;25.17;;;;;;;;;;5056264;28;20047;-76
2021/11/11 02:06:13;;;;;;;50.33;24.30;;;;;;;;;;5042022;28;20059;-76
2021/11/11 02:09:16;;;;;;;50.53;25.05;;;;;;;;;;5056367;28;20403;-76
2021/11/11 02:12:30;;;;;;;56.80;25.17;;;;;;;;;;5044103;28;20049;-76
2021/11/11 02:15:16;;;;;;;56.20;25.85;;;;;;;;;;5041961;28;20041;-74
2021/11/11 02:17:51;;;;;;;61.58;25.55;;;;;;;;;;5040385;28;20040;-74
2021/11/11 02:20:20;;;;;;;68.82;27.42;;;;;;;;;;5040272;28;20036;-74
2021/11/11 02:23:11;;;;;;;77.45;28.33;;;;;;;;;;5043254;28;20028;-75
2021/11/11 02:26:03;;;;;;;53.50;22.75;;;;;;;;;;5056634;28;20044;-74
2021/11/11 02:28:36;;;;;;;42.05;21.45;;;;;;;;;;5055947;28;20032;-74
2021/11/11 02:31:02;;;;;;;40.78;20.50;;;;;;;;;;5073701;28;20036;-74
2021/11/11 02:33:36;;;;;;;39.90;20.15;;;;;;;;;;5055711;28;20518;-75
2021/11/11 02:36:06;;;;;;;38.92;19.52;;;;;;;;;;5039272;28;20493;-74
2021/11/11 02:38:35;;;;;;;37.47;20.05;;;;;;;;;;5056075;28;20054;-73
2021/11/11 02:41:02;;;;;;;40.17;21.08;;;;;;;;;;5056217;28;20086;-74
2021/11/11 02:43:31;;;;;;;38.53;20.08;;;;;;;;;;5055570;28;20037;-74
2021/11/11 02:46:05;;;;;;;38.78;19.73;;;;;;;;;;5055883;28;20447;-74
2021/11/11 02:48:30;;;;;;;41.90;20.10;;;;;;;;;;5055665;28;20090;-74
2021/11/11 02:51:01;;;;;;;40.25;19.92;;;;;;;;;;5055171;28;20025;-75
2021/11/11 02:53:38;;;;;;;48.67;23.77;;;;;;;;;;5039073;28;20033;-75
2021/11/11 02:56:09;;;;;;;53.40;24.40;;;;;;;;;;5056191;28;20044;-74
2021/11/11 02:58:40;;;;;;;49.28;23.20;;;;;;;;;;5055315;28;20055;-75
2021/11/11 03:01:21;;;;;;;42.38;21.05;;;;;;;;;;5055459;28;20150;-75
2021/11/11 03:03:53;;;;;;;39.60;20.83;;;;;;;;;;5073386;28;20041;-75
2021/11/11 03:06:26;;;;;;;36.83;19.27;;;;;;;;;;5055417;28;20037;-75
2021/11/11 03:08:53;;;;;;;36.00;18.92;;;;;;;;;;5055265;28;20044;-75
2021/11/11 03:11:22;;;;;;;36.78;18.50;;;;;;;;;;5054726;28;20074;-75
2021/11/11 03:13:57;;;;;;;37.60;18.05;;;;;;;;;;5040022;28;20174;-75
2021/11/11 03:16:27;;;;;;;52.95;22.38;;;;;;;;;;5055261;28;20032;-75
2021/11/11 03:18:56;;;;;;;47.47;22.27;;;;;;;;;;5055244;28;20060;-75
2021/11/11 03:21:22;;;;;;;46.13;21.85;;;;;;;;;;5055212;28;20036;-74
2021/11/11 03:23:48;;;;;;;50.22;23.63;;;;;;;;;;5054270;28;20033;-76
2021/11/11 03:26:16;;;;;;;50.67;23.60;;;;;;;;;;5055529;28;20135;-77
2021/11/11 03:28:44;;;;;;;43.05;21.52;;;;;;;;;;5055193;28;20040;-77
2021/11/11 03:31:17;;;;;;;41.00;19.85;;;;;;;;;;5039642;28;20063;-77
2021/11/11 03:33:43;;;;;;;38.38;19.98;;;;;;;;;;5038505;28;20032;-77
2021/11/11 03:36:10;;;;;;;46.03;21.05;;;;;;;;;;5055011;28;20021;-78
2021/11/11 03:38:39;;;;;;;37.80;19.75;;;;;;;;;;5055070;28;20124;-77
2021/11/11 03:41:05;;;;;;;36.63;19.77;;;;;;;;;;5055016;28;20039;-77
2021/11/11 03:43:34;;;;;;;40.65;20.48;;;;;;;;;;5054841;28;20051;-77
2021/11/11 03:46:09;;;;;;;38.35;19.27;;;;;;;;;;5054869;28;20115;-76
2021/11/11 03:48:37;;;;;;;36.30;18.20;;;;;;;;;;5073261;28;20472;-77
2021/11/11 03:51:04;;;;;;;37.25;17.75;;;;;;;;;;5054731;28;20025;-76
2021/11/11 03:53:31;;;;;;;37.45;18.98;;;;;;;;;;5072769;28;20484;-75
2021/11/11 03:56:03;;;;;;;32.85;17.85;;;;;;;;;;5054724;28;20514;-75
2021/11/11 03:58:36;;;;;;;34.50;17.93;;;;;;;;;;5055334;28;20032;-75
2021/11/11 04:01:15;;;;;;;32.00;17.27;;;;;;;;;;5054736;28;20047;-76
2021/11/11 04:03:45;;;;;;;33.22;17.38;;;;;;;;;;5038180;28;20073;-77
2021/11/11 04:06:12;;;;;;;31.13;17.83;;;;;;;;;;5054672;28;20496;-76
2021/11/11 04:08:37;;;;;;;35.05;18.25;;;;;;;;;;5054862;28;20075;-77
2021/11/11 04:11:05;;;;;;;35.90;17.92;;;;;;;;;;5073005;28;20112;-77
2021/11/11 04:13:31;;;;;;;31.77;17.85;;;;;;;;;;5072499;28;20040;-77
2021/11/11 04:16:00;;;;;;;36.35;17.63;;;;;;;;;;5072556;28;20033;-77
2021/11/11 04:18:29;;;;;;;34.30;17.88;;;;;;;;;;5054615;28;20037;-77
2021/11/11 04:21:14;;;;;;;35.33;17.50;;;;;;;;;;5038034;28;20634;-78
2021/11/11 04:23:51;;;;;;;35.67;18.52;;;;;;;;;;5057708;28;20047;-77
2021/11/11 04:26:23;;;;;;;32.08;18.50;;;;;;;;;;5038319;28;20088;-78
2021/11/11 04:28:58;;;;;;;29.33;17.27;;;;;;;;;;5038197;28;20029;-78
2021/11/11 04:31:30;;;;;;;32.83;18.02;;;;;;;;;;5021656;28;20033;-78
2021/11/11 04:34:03;;;;;;;33.25;17.08;;;;;;;;;;5021776;28;20083;-77
2021/11/11 05:01:13;;;;;;;36.03;17.08;;;;;;;;;;5055838;28;20408;-77
2021/11/11 05:03:44;;;;;;;26.42;15.57;;;;;;;;;;5037898;28;20099;-78
2021/11/11 05:06:11;;;;;;;;;;;;;;;;;;5055877;28;20037;-78
2021/11/11 05:08:38;;;;;;;25.75;14.80;;;;;;;;;;5037579;28;20356;-78
2021/11/11 05:11:06;;;;;;;29.15;15.93;;;;;;;;;;5038095;28;20037;-79
2021/11/11 05:13:35;;;;;;;29.20;16.02;;;;;;;;;;5037516;28;20469;-75
2021/11/11 05:16:04;;;;;;;31.42;15.90;;;;;;;;;;5037484;28;20444;-77
2021/11/11 05:18:30;;;;;;;29.45;16.30;;;;;;;;;;5037208;28;20108;-77
2021/11/11 05:21:00;;;;;;;33.30;17.73;;;;;;;;;;5037194;28;20061;-76
2021/11/11 05:23:25;;;;;;;29.52;17.75;;;;;;;;;;5037378;28;20484;-76
2021/11/11 05:25:53;;;;;;;30.50;17.40;;;;;;;;;;5037617;28;20041;-74
2021/11/11 05:28:21;;;;;;;30.05;17.48;;;;;;;;;;5057018;28;20041;-76
2021/11/11 05:30:48;;;;;;;38.42;20.80;;;;;;;;;;5056785;28;20033;-76
2021/11/11 05:33:20;;;;;;;32.85;19.75;;;;;;;;;;5056327;28;20038;-76
2021/11/11 05:35:47;;;;;;;31.45;18.77;;;;;;;;;;5056976;28;20040;-77
2021/11/11 05:38:17;;;;;;;31.63;17.33;;;;;;;;;;5040336;28;20083;-78
2021/11/11 05:40:43;;;;;;;30.17;17.00;;;;;;;;;;5056940;28;20111;-78
2021/11/11 05:43:09;;;;;;;34.13;17.75;;;;;;;;;;5056870;28;20754;-76
2021/11/11 05:45:38;;;;;;;26.83;16.00;;;;;;;;;;5057065;28;20506;-76
2021/11/11 05:48:05;;;;;;;31.52;16.23;;;;;;;;;;5056732;28;20033;-77
2021/11/11 05:50:36;;;;;;;27.50;15.35;;;;;;;;;;5056540;28;20404;-77
2021/11/11 05:53:05;;;;;;;27.92;16.00;;;;;;;;;;5056281;28;20119;-77
2021/11/11 05:55:35;;;;;;;29.33;16.17;;;;;;;;;;5056602;28;20052;-78
2021/11/11 05:58:10;;;;;;;31.75;17.30;;;;;;;;;;5056466;28;20029;-78
2021/11/11 06:00:38;;;;;;;27.07;16.00;;;;;;;;;;5056339;28;20064;-78
2021/11/11 06:03:20;;;;;;;27.27;14.98;;;;;;;;;;5074807;28;20024;-79
2021/11/11 06:06:05;;;;;;;28.60;17.67;;;;;;;;;;5040948;28;20044;-78
2021/11/11 06:08:36;;;;;;;31.38;18.95;;;;;;;;;;5056209;28;20037;-79
2021/11/11 06:11:06;;;;;;;27.48;18.08;;;;;;;;;;5073999;28;20036;-78
2021/11/11 06:13:34;;;;;;;;;;;;;;;;;;5074532;28;20032;-78
2021/11/11 06:16:22;;;;;;;78.15;41.33;;;;;;;;;;5074123;28;19908;-78
2021/11/11 06:18:52;;;;;;;84.97;44.00;;;;;;;;;;5056043;28;20040;-78
2021/11/11 06:21:24;;;;;;;39.28;23.55;;;;;;;;;;5056381;28;20032;-78
2021/11/11 06:23:50;;;;;;;30.17;18.08;;;;;;;;;;5073642;28;20103;-78
2021/11/11 06:26:18;;;;;;;34.35;20.00;;;;;;;;;;5055715;28;20049;-78
2021/11/11 06:28:52;;;;;;;36.90;20.52;;;;;;;;;;5055967;28;20048;-78
2021/11/11 06:31:26;;;;;;;35.83;20.65;;;;;;;;;;5055931;28;20055;-78
2021/11/11 06:33:53;;;;;;;33.83;19.25;;;;;;;;;;5056051;28;20068;-78
2021/11/11 06:36:36;;;;;;;43.25;21.38;;;;;;;;;;5056729;28;20032;-78
2021/11/11 06:39:03;;;;;;;38.50;21.77;;;;;;;;;;5073708;28;20028;-78
2021/11/11 06:41:28;;;;;;;35.47;20.60;;;;;;;;;;5073856;28;20487;-78
2021/11/11 06:43:55;;;;;;;36.67;21.80;;;;;;;;;;5073767;28;20048;-78
2021/11/11 06:46:21;;;;;;;39.05;21.48;;;;;;;;;;5055382;28;20476;-78
2021/11/11 06:48:47;;;;;;;34.85;20.73;;;;;;;;;;5055840;28;20126;-79
2021/11/11 06:51:16;;;;;;;33.72;20.42;;;;;;;;;;5073156;28;20119;-78
2021/11/11 06:53:52;;;;;;;34.80;21.50;;;;;;;;;;5055661;28;20476;-79
2021/11/11 06:56:26;;;;;;;35.70;19.90;;;;;;;;;;5073164;28;20555;-78
2021/11/11 06:58:52;;;;;;;33.85;19.27;;;;;;;;;;5055335;28;20552;-78
2021/11/11 07:01:21;;;;;;;31.05;20.38;;;;;;;;;;5055481;28;20024;-78
2021/11/11 07:03:48;;;;;;;36.77;21.77;;;;;;;;;;5055495;28;20055;-78
2021/11/11 07:06:15;;;;;;;32.65;21.00;;;;;;;;;;5039297;28;20033;-79
2021/11/11 07:08:48;;;;;;;29.42;18.50;;;;;;;;;;5073265;28;20041;-78
2021/11/11 07:11:19;;;;;;;33.00;19.02;;;;;;;;;;5073536;28;20476;-75
2021/11/11 07:13:46;;;;;;;;;;;;;;;;;;5073854;28;20041;-78
2021/11/11 07:16:13;;;;;;;30.77;18.40;;;;;;;;;;5055311;28;19904;-78
2021/11/11 07:18:39;;;;;;;32.25;20.55;;;;;;;;;;5073062;28;20067;-78
2021/11/11 07:21:10;;;;;;;44.72;23.40;;;;;;;;;;5073317;28;20052;-78
2021/11/11 07:23:48;;;;;;;46.08;25.23;;;;;;;;;;5073444;28;20507;-78
2021/11/11 07:26:18;;;;;;;44.20;23.52;;;;;;;;;;5038586;28;20078;-78
2021/11/11 07:28:44;;;;;;;57.17;26.43;;;;;;;;;;5073165;28;20040;-78
2021/11/11 07:31:23;;;;;;;68.32;33.15;;;;;;;;;;5072983;28;20270;-78
2021/11/11 07:33:59;;;;;;;75.07;34.95;;;;;;;;;;5073057;28;20043;-78
2021/11/11 07:36:37;;;;;;;63.28;32.08;;;;;;;;;;5055459;28;20068;-77
2021/11/11 07:42:22;;;;;;;51.67;27.67;;;;;;;;;;5072971;28;20052;-77
2021/11/11 07:45:11;;;;;;;49.65;26.92;;;;;;;;;;5055059;28;20040;-77
2021/11/11 07:47:46;;;;;;;60.15;30.02;;;;;;;;;;5055077;28;20103;-77
2021/11/11 07:50:15;;;;;;;54.08;30.33;;;;;;;;;;5072862;28;20076;-77
2021/11/11 07:52:44;;;;;;;66.90;36.17;;;;;;;;;;5055015;28;20064;-77
2021/11/11 07:55:10;;;;;;;66.15;33.50;;;;;;;;;;5072803;28;20039;-77
2021/11/11 07:57:38;;;;;;;61.78;28.98;;;;;;;;;;5074697;28;20100;-77
2021/11/11 08:00:06;;;;;;;60.58;27.80;;;;;;;;;;5076793;28;20454;-77
2021/11/11 08:02:45;;;;;;;62.28;27.23;;;;;;;;;;5076429;28;20480;-77
2021/11/11 08:05:32;;;;;;;61.33;25.13;;;;;;;;;;5076768;28;20057;-77
2021/11/11 08:07:57;;;;;;;75.80;31.17;;;;;;;;;;5076516;28;20054;-77
2021/11/11 08:10:29;;;;;;;64.68;30.90;;;;;;;;;;5058343;28;20115;-77
2021/11/11 08:13:03;;;;;;;61.83;31.45;;;;;;;;;;5076365;28;20071;-77
2021/11/11 08:15:45;;;;;;;58.53;30.17;;;;;;;;;;5058369;28;20037;-77
2021/11/11 08:18:16;;;;;;;55.50;27.42;;;;;;;;;;5058784;28;20488;-77
2021/11/11 08:23:26;;;;;;;45.67;23.40;;;;;;;;;;5076325;28;20417;-77
2021/11/11 08:26:03;;;;;;;51.75;26.50;;;;;;;;;;5075903;28;20048;-77
2021/11/11 08:28:29;;;;;;;41.92;22.70;;;;;;;;;;5058012;28;20375;-72
2021/11/11 08:30:57;;;;;;;45.35;22.45;;;;;;;;;;5075819;28;20107;-72
2021/11/11 08:33:23;;;;;;;42.45;22.50;;;;;;;;;;5076168;28;20511;-72
2021/11/11 08:35:49;;;;;;;40.13;22.80;;;;;;;;;;5076072;28;20028;-72
2021/11/11 08:38:17;;;;;;;43.28;21.55;;;;;;;;;;5076108;28;20119;-72
2021/11/11 08:40:44;;;;;;;39.88;21.25;;;;;;;;;;5075927;28;20044;-72
2021/11/11 08:43:10;;;;;;;42.65;23.40;;;;;;;;;;5075632;28;20480;-72
2021/11/11 08:45:38;;;;;;;35.17;20.88;;;;;;;;;;5056874;28;20073;-72
2021/11/11 08:48:06;;;;;;;38.47;21.48;;;;;;;;;;5057502;28;20408;-72
2021/11/11 08:50:34;;;;;;;35.67;20.17;;;;;;;;;;5057201;28;20040;-72
2021/11/11 08:53:00;;;;;;;39.15;21.40;;;;;;;;;;5057366;28;20028;-72
2021/11/11 08:55:27;;;;;;;34.85;20.20;;;;;;;;;;5075319;28;20047;-72
2021/11/11 08:57:53;;;;;;;33.60;19.25;;;;;;;;;;5074825;28;20039;-75
2021/11/11 09:00:20;;;;;;;33.72;20.30;;;;;;;;;;5075350;28;20028;-75
2021/11/11 09:02:46;;;;;;;30.95;19.75;;;;;;;;;;5057394;28;20044;-75
2021/11/11 09:05:12;;;;;;;34.35;20.85;;;;;;;;;;5057427;28;20032;-75
2021/11/11 09:07:39;;;;;;;28.40;18.50;;;;;;;;;;5074969;28;20033;-74
2021/11/11 09:10:06;;;;;;;30.80;18.52;;;;;;;;;;5073662;28;20480;-74
2021/11/11 09:12:32;;;;;;;29.15;17.60;;;;;;;;;;5074864;28;20036;-75
2021/11/11 09:14:57;;;;;;;30.80;18.05;;;;;;;;;;5056755;28;20028;-75
2021/11/11 09:17:23;;;;;;;25.42;16.45;;;;;;;;;;5074870;28;20079;-75
2021/11/11 09:19:48;;;;;;;24.92;16.63;;;;;;;;;;5074720;28;20032;-75
2021/11/11 09:22:14;;;;;;;26.10;17.02;;;;;;;;;;5074930;28;20492;-75
2021/11/11 09:24:39;;;;;;;26.58;15.68;;;;;;;;;;5074337;28;20036;-75
2021/11/11 09:27:05;;;;;;;24.05;16.17;;;;;;;;;;5074695;28;20029;-75
2021/11/11 09:29:31;;;;;;;22.92;14.82;;;;;;;;;;5074570;28;20040;-75
2021/11/11 09:31:56;;;;;;;23.40;15.10;;;;;;;;;;5074647;28;20033;-74
2021/11/11 09:34:22;;;;;;;23.58;14.25;;;;;;;;;;5074368;28;20055;-75
2021/11/11 09:36:47;;;;;;;24.20;14.88;;;;;;;;;;5074324;28;20163;-74
2021/11/11 09:39:13;;;;;;;20.65;15.25;;;;;;;;;;5074482;28;20419;-75
2021/11/11 09:41:39;;;;;;;24.55;15.45;;;;;;;;;;5074208;28;20071;-74
2021/11/11 09:44:04;;;;;;;23.88;15.57;;;;;;;;;;5074250;28;20031;-74
2021/11/11 09:46:30;;;;;;;22.02;14.65;;;;;;;;;;5074001;28;20119;-74
2021/11/11 09:48:55;;;;;;;20.63;14.20;;;;;;;;;;5074256;28;20028;-74
2021/11/11 09:51:23;;;;;;;25.48;14.90;;;;;;;;;;5074093;28;20037;-74
2021/11/11 09:59:16;;;;;;;20.63;13.27;;;;;;;;;;5039597;28;20040;-74
2021/11/11 10:01:43;;;;;;;22.58;14.43;;;;;;;;;;5073803;28;20032;-73
2021/11/11 10:04:09;;;;;;;20.52;13.68;;;;;;;;;;5056168;28;20044;-73
2021/11/11 10:06:35;;;;;;;20.13;13.20;;;;;;;;;;5073915;28;20029;-73
2021/11/11 10:09:10;;;;;;;20.65;13.77;;;;;;;;;;5056014;28;20377;-73
2021/11/11 10:11:37;;;;;;;19.85;13.63;;;;;;;;;;5073664;28;20075;-73
2021/11/11 10:14:07;;;;;;;20.20;13.38;;;;;;;;;;5073519;28;20127;-73
2021/11/11 10:16:43;;;;;;;22.70;13.85;;;;;;;;;;5073564;28;20036;-72
2021/11/11 10:19:09;;;;;;;23.20;14.27;;;;;;;;;;5073576;28;20476;-72
2021/11/11 10:24:11;;;;;;;26.48;16.25;;;;;;;;;;5073402;28;20131;-73
2021/11/11 10:26:42;;;;;;;24.92;13.85;;;;;;;;;;5073703;28;20068;-72
2021/11/11 10:29:32;;;;;;;21.00;13.43;;;;;;;;;;5055853;28;20063;-72
2021/11/11 10:32:02;;;;;;;19.55;13.30;;;;;;;;;;5055444;28;20041;-72
2021/11/11 10:34:28;;;;;;;19.20;12.80;;;;;;;;;;5038629;28;20549;-72
2021/11/11 10:36:54;;;;;;;20.35;13.23;;;;;;;;;;5073192;28;20060;-72
2021/11/11 10:39:31;;;;;;;20.48;12.90;;;;;;;;;;5073231;28;20035;-72
2021/11/11 10:41:57;;;;;;;20.23;13.10;;;;;;;;;;5055188;28;20095;-72
2021/11/11 10:44:24;;;;;;;20.10;13.52;;;;;;;;;;5073299;28;20032;-72
2021/11/11 10:47:04;;;;;;;18.40;11.93;;;;;;;;;;5073060;28;20089;-72
2021/11/11 10:49:36;;;;;;;15.02;10.60;;;;;;;;;;5054790;28;20044;-72
2021/11/11 10:52:20;;;;;;;19.38;13.00;;;;;;;;;;5072625;28;20044;-72
2021/11/11 10:55:01;;;;;;;19.75;12.27;;;;;;;;;;5072634;28;20032;-72
2021/11/11 10:57:44;;;;;;;23.55;12.88;;;;;;;;;;5072914;28;20033;-72
2021/11/11 11:00:10;;;;;;;21.35;12.52;;;;;;;;;;5073161;28;20040;-72
2021/11/11 11:03:01;;;;;;;19.35;11.90;;;;;;;;;;5073125;28;20534;-72
2021/11/11 11:05:47;;;;;;;16.30;11.65;;;;;;;;;;5051949;28;20437;-71
2021/11/11 11:08:16;;;;;;;19.98;12.63;;;;;;;;;;5055254;28;20432;-71
2021/11/11 11:10:43;;;;;;;18.05;12.23;;;;;;;;;;5073258;28;20469;-72
2021/11/11 11:13:12;;;;;;;18.63;11.05;;;;;;;;;;5073237;28;20068;-71
2021/11/11 11:15:39;;;;;;;19.10;12.48;;;;;;;;;;5072478;28;20075;-72
2021/11/11 11:18:05;;;;;;;18.55;11.38;;;;;;;;;;5054152;28;20041;-71
2021/11/11 11:20:30;;;;;;;16.42;11.35;;;;;;;;;;5054446;28;20037;-71
2021/11/11 11:23:16;;;;;;;16.00;9.43;;;;;;;;;;5054230;28;20158;-71
2021/11/11 11:25:49;;;;;;;21.00;12.25;;;;;;;;;;5071838;28;20438;-71
2021/11/11 11:28:26;;;;;;;18.33;10.73;;;;;;;;;;5066646;28;20047;-71
2021/11/11 11:30:53;;;;;;;22.05;12.18;;;;;;;;;;5055203;28;20499;-71
2021/11/11 11:33:42;;;;;;;15.57;10.32;;;;;;;;;;5058187;28;20020;-71
2021/11/11 11:36:05;;;;;;;19.48;11.00;;;;;;;;;;5076527;28;20453;-71
2021/11/11 11:38:31;;;;;;;17.52;11.02;;;;;;;;;;5077051;28;20104;-71
2021/11/11 11:40:57;;;;;;;18.00;12.02;;;;;;;;;;5076805;28;20398;-71
2021/11/11 11:43:27;;;;;;;19.27;10.88;;;;;;;;;;5076696;28;20036;-71
2021/11/11 11:45:53;;;;;;;16.80;10.75;;;;;;;;;;5076693;28;20048;-71
2021/11/11 11:48:21;;;;;;;14.75;9.93;;;;;;;;;;5076754;28;20055;-71
2021/11/11 11:50:51;;;;;;;16.38;10.55;;;;;;;;;;5076598;28;20131;-71
2021/11/11 11:53:20;;;;;;;18.00;10.80;;;;;;;;;;5076613;28;20107;-71
2021/11/11 11:58:41;;;;;;;16.65;10.45;;;;;;;;;;5076507;28;20071;-71
2021/11/11 12:06:47;;;;;;;13.75;9.35;;;;;;;;;;5076788;28;20044;-71
2021/11/11 12:39:39;;;;;;;13.13;8.18;;;;;;;;;;5057717;28;20040;-72
2021/11/11 12:42:07;;;;;;;11.40;7.45;;;;;;;;;;5057868;28;20143;-70
2021/11/11 12:44:33;;;;;;;11.30;8.18;;;;;;;;;;5075566;28;20032;-70
2021/11/11 12:46:59;;;;;;;12.00;7.38;;;;;;;;;;5075622;28;20531;-70
2021/11/11 12:49:35;;;;;;;11.35;7.53;;;;;;;;;;5057719;28;20064;-71
2021/11/11 12:52:13;;;;;;;17.10;9.23;;;;;;;;;;5075499;28;20053;-71
2021/11/11 12:54:39;;;;;;;13.15;8.05;;;;;;;;;;5057794;28;20055;-71
2021/11/11 12:57:04;;;;;;;13.25;8.25;;;;;;;;;;5075719;28;20031;-71
2021/11/11 12:59:34;;;;;;;11.18;8.05;;;;;;;;;;5075412;28;20033;-71
2021/11/11 13:02:05;;;;;;;14.50;8.27;;;;;;;;;;5075461;28;20028;-71
2021/11/11 13:04:43;;;;;;;11.10;7.53;;;;;;;;;;5075437;28;20123;-71
2021/11/11 13:07:20;;;;;;;11.52;7.82;;;;;;;;;;5057501;28;20040;-71
2021/11/11 13:09:57;;;;;;;11.63;7.53;;;;;;;;;;5057331;28;20500;-71
2021/11/11 13:12:25;;;;;;;11.38;7.68;;;;;;;;;;5075291;28;20037;-71
2021/11/11 13:14:52;;;;;;;12.32;7.70;;;;;;;;;;5040531;28;20468;-71
2021/11/11 13:17:19;;;;;;;11.52;7.78;;;;;;;;;;5057031;28;20127;-71
2021/11/11 13:20:06;;;;;;;9.80;7.10;;;;;;;;;;5074984;28;20028;-71
2021/11/11 13:23:03;;;;;;;10.88;7.50;;;;;;;;;;5058199;28;20040;-71
2021/11/11 16:19:45;;;;;;;40.25;23.27;;;;;;;;;;5013660;28;20410;-77
2021/11/11 16:27:29;;;;;;;218.85;88.95;;;;;;;;;;5076107;28;20040;-73
2021/11/11 16:29:59;;;;;;;191.07;83.57;;;;;;;;;;5058100;28;20024;-73
2021/11/11 16:32:24;;;;;;;198.60;86.03;;;;;;;;;;5058242;28;20036;-73
2021/11/11 16:34:49;;;;;;;183.82;80.45;;;;;;;;;;5057899;28;20048;-73
2021/11/11 16:37:15;;;;;;;172.63;74.53;;;;;;;;;;5058120;28;20037;-73
2021/11/11 16:39:41;;;;;;;168.10;70.78;;;;;;;;;;5075628;28;20032;-72
2021/11/11 16:42:06;;;;;;;158.68;65.15;;;;;;;;;;5057588;28;20086;-72
2021/11/11 16:44:32;;;;;;;162.60;71.07;;;;;;;;;;5075306;28;20377;-72
2021/11/11 16:46:59;;;;;;;151.43;67.93;;;;;;;;;;5057340;28;20530;-72
2021/11/11 16:49:27;;;;;;;142.10;63.63;;;;;;;;;;5074969;28;20404;-72
2021/11/11 16:51:53;;;;;;;113.63;51.78;;;;;;;;;;5075616;28;20051;-73
2021/11/11 16:54:18;;;;;;;90.13;44.40;;;;;;;;;;5057869;28;20028;-73
2021/11/11 16:56:45;;;;;;;77.72;36.78;;;;;;;;;;5075854;28;20033;-73
2021/11/11 16:59:11;;;;;;;74.72;37.70;;;;;;;;;;5075730;28;20075;-72
2021/11/11 17:01:36;;;;;;;72.20;35.22;;;;;;;;;;5076030;28;20048;-72
2021/11/11 17:04:03;;;;;;;78.50;38.85;;;;;;;;;;5075677;28;20070;-73
2021/11/11 17:06:29;;;;;;;77.85;40.33;;;;;;;;;;5075539;28;20078;-71
2021/11/11 17:08:55;;;;;;;85.65;42.95;;;;;;;;;;5075585;28;20025;-73
2021/11/11 17:11:21;;;;;;;68.45;35.13;;;;;;;;;;5040833;28;20040;-73
2021/11/11 17:13:48;;;;;;;65.38;33.60;;;;;;;;;;5040716;28;20120;-73
2021/11/11 17:16:17;;;;;;;64.30;32.58;;;;;;;;;;5075331;28;20033;-73
2021/11/11 17:18:43;;;;;;;70.30;34.05;;;;;;;;;;5075249;28;20070;-72
2021/11/11 17:21:13;;;;;;;64.05;31.42;;;;;;;;;;5057300;28;20040;-73
2021/11/11 17:24:03;;;;;;;61.08;30.88;;;;;;;;;;5075280;28;20032;-73
2021/11/11 17:29:15;;;;;;;52.72;28.15;;;;;;;;;;5054586;28;20397;-73
2021/11/11 17:31:43;;;;;;;47.15;25.63;;;;;;;;;;5036731;28;20033;-73
2021/11/11 17:34:09;;;;;;;44.95;24.27;;;;;;;;;;5020763;28;20024;-73
2021/11/11 17:36:35;;;;;;;42.97;23.77;;;;;;;;;;5054556;28;20044;-73
2021/11/11 17:39:01;;;;;;;45.80;25.08;;;;;;;;;;5055000;28;20033;-72
2021/11/11 17:41:30;;;;;;;40.75;24.00;;;;;;;;;;5054641;28;20603;-73
2021/11/11 17:43:57;;;;;;;46.70;24.70;;;;;;;;;;5054857;28;20043;-73
2021/11/11 17:46:26;;;;;;;46.67;25.33;;;;;;;;;;5054715;28;20036;-73
2021/11/11 17:48:54;;;;;;;49.65;26.70;;;;;;;;;;5054842;28;20029;-73
2021/11/11 17:54:14;;;;;;;44.47;26.25;;;;;;;;;;5054597;28;20120;-72
2021/11/11 17:56:45;;;;;;;44.65;25.38;;;;;;;;;;5054295;28;20370;-72
2021/11/11 17:59:11;;;;;;;39.80;24.17;;;;;;;;;;5036438;28;20044;-73
2021/11/11 18:01:36;;;;;;;41.97;24.98;;;;;;;;;;5020212;28;20032;-73
2021/11/11 18:04:02;;;;;;;44.95;24.95;;;;;;;;;;5036581;28;20551;-73
2021/11/11 18:06:38;;;;;;;46.10;25.38;;;;;;;;;;5054455;28;20052;-72
2021/11/11 18:09:10;;;;;;;56.08;27.65;;;;;;;;;;5036560;28;20036;-73
2021/11/11 18:11:36;;;;;;;53.13;27.80;;;;;;;;;;5054190;28;20080;-72
2021/11/11 18:14:05;;;;;;;55.20;29.60;;;;;;;;;;5035812;28;20132;-73
2021/11/11 18:16:33;;;;;;;57.40;30.45;;;;;;;;;;5053386;28;20060;-72
2021/11/11 18:19:01;;;;;;;56.58;31.95;;;;;;;;;;5015789;28;20481;-72
2021/11/11 18:21:28;;;;;;;57.92;32.17;;;;;;;;;;5034140;28;20128;-72
2021/11/11 18:23:54;;;;;;;60.45;32.80;;;;;;;;;;5034024;28;20060;-72
2021/11/11 18:26:20;;;;;;;62.00;33.25;;;;;;;;;;5016831;28;20132;-73
2021/11/11 18:28:52;;;;;;;64.82;34.33;;;;;;;;;;5016331;28;20076;-73
2021/11/11 18:36:44;;;;;;;70.28;38.42;;;;;;;;;;5051700;28;20033;-73
2021/11/11 18:39:11;;;;;;;74.13;38.45;;;;;;;;;;5053903;28;20053;-73
2021/11/11 18:41:40;;;;;;;68.18;36.35;;;;;;;;;;5035781;28;20504;-72
2021/11/11 18:44:10;;;;;;;60.08;31.90;;;;;;;;;;5050319;28;20056;-73
2021/11/11 18:46:45;;;;;;;57.63;29.60;;;;;;;;;;5053132;28;20029;-73
2021/11/11 18:49:15;;;;;;;49.15;27.80;;;;;;;;;;5033474;28;20034;-73
2021/11/11 18:51:45;;;;;;;54.60;27.92;;;;;;;;;;5034748;28;20417;-73
2021/11/11 18:54:11;;;;;;;51.22;27.63;;;;;;;;;;5052813;28;20499;-69
2021/11/11 18:56:37;;;;;;;48.72;27.77;;;;;;;;;;5053288;28;20104;-73
2021/11/11 18:59:03;;;;;;;49.65;29.30;;;;;;;;;;5053248;28;20033;-72
2021/11/11 19:01:29;;;;;;;50.13;28.25;;;;;;;;;;5052425;28;20555;-71
2021/11/11 19:04:00;;;;;;;48.75;27.90;;;;;;;;;;5053649;28;20033;-72